Time;durP1;ratioP1;P1;durP2;ratioP2;P2;SDS_P1;SDS_P2;PMS_P1;PMS_P2;Temp;Humidity;BMP_temperature;BMP_pressure;BME280_temperature;BME280_humidity;BME280_pressure;Samples;Min_cycle;Max_cycle;Signal;HPM_P1;HPM_P2
2022/12/28 00:00:48;;;;;;;21.58;14.55;;;7.30;89.80;;;;;;4995749;28;20510;-75
2022/12/28 00:03:14;;;;;;;20.42;14.27;;;7.40;89.80;;;;;;5003760;28;20538;-76
2022/12/28 00:05:39;;;;;;;18.65;13.73;;;7.40;89.70;;;;;;4998764;28;20038;-74
2022/12/28 00:08:05;;;;;;;18.52;13.15;;;7.40;89.60;;;;;;5001617;28;20029;-76
2022/12/28 00:10:31;;;;;;;19.85;13.25;;;7.50;89.70;;;;;;4996307;28;20715;-75
2022/12/28 00:12:56;;;;;;;20.92;13.30;;;7.50;89.50;;;;;;4993630;28;20050;-76
2022/12/28 00:15:22;;;;;;;20.52;12.82;;;7.50;89.50;;;;;;4997054;28;20030;-75
2022/12/28 00:17:48;;;;;;;19.58;13.25;;;7.50;89.50;;;;;;5001707;28;20022;-75
2022/12/28 00:20:13;;;;;;;18.42;13.27;;;7.60;89.40;;;;;;4999726;28;20026;-76
2022/12/28 00:22:39;;;;;;;19.25;13.43;;;7.60;89.50;;;;;;4997184;28;20042;-75
2022/12/28 00:25:05;;;;;;;16.55;12.18;;;7.60;89.40;;;;;;5012747;28;20029;-75
2022/12/28 00:27:31;;;;;;;16.50;12.32;;;7.60;89.30;;;;;;5014117;28;20038;-75
2022/12/28 00:29:57;;;;;;;18.60;12.02;;;7.70;89.20;;;;;;4999713;28;20099;-74
2022/12/28 00:32:22;;;;;;;18.45;12.25;;;7.70;89.30;;;;;;4998816;28;20301;-76
2022/12/28 00:34:48;;;;;;;15.68;10.88;;;7.70;89.20;;;;;;5002070;28;20026;-75
2022/12/28 00:37:14;;;;;;;16.23;11.93;;;7.80;89.20;;;;;;5005351;28;20045;-77
2022/12/28 00:39:41;;;;;;;17.50;11.63;;;7.80;89.10;;;;;;4999785;28;20113;-76
2022/12/28 00:42:07;;;;;;;17.42;11.93;;;7.80;89.00;;;;;;5001641;28;20047;-75
2022/12/28 00:44:32;;;;;;;16.58;11.35;;;7.80;89.00;;;;;;5002364;28;20022;-75
2022/12/28 00:46:58;;;;;;;16.70;11.07;;;7.90;88.90;;;;;;4997390;28;20034;-75
2022/12/28 00:49:23;;;;;;;16.73;10.45;;;8.00;88.80;;;;;;5004043;28;20057;-74
2022/12/28 00:51:49;;;;;;;17.10;11.50;;;8.00;88.80;;;;;;5007701;28;20033;-76
2022/12/28 00:54:15;;;;;;;16.33;10.30;;;8.00;88.80;;;;;;5004397;28;20021;-75
2022/12/28 00:56:45;;;;;;;17.10;10.80;;;8.00;88.90;;;;;;4999838;28;20688;-74
2022/12/28 00:59:11;;;;;;;14.18;10.30;;;8.10;88.90;;;;;;4995103;28;20073;-76
2022/12/28 01:01:37;;;;;;;15.27;10.57;;;8.10;88.80;;;;;;5004011;28;20081;-74
2022/12/28 01:04:02;;;;;;;14.63;10.10;;;8.10;88.80;;;;;;5002997;28;20073;-74
2022/12/28 01:06:28;;;;;;;14.30;9.82;;;8.10;89.00;;;;;;4997976;28;20034;-75
2022/12/28 01:08:55;;;;;;;15.00;10.18;;;8.10;88.90;;;;;;5003888;28;20105;-74
2022/12/28 01:11:23;;;;;;;15.98;10.07;;;8.20;89.00;;;;;;5001981;28;20149;-75
2022/12/28 01:13:51;;;;;;;14.13;10.05;;;8.20;89.00;;;;;;4999631;28;20129;-76
2022/12/28 01:16:22;;;;;;;15.95;9.73;;;8.20;89.00;;;;;;5003063;28;20053;-73
2022/12/28 01:18:52;;;;;;;14.98;10.07;;;8.20;89.00;;;;;;5008392;28;20030;-75
2022/12/28 01:21:20;;;;;;;15.93;9.68;;;8.20;89.10;;;;;;5004691;28;20121;-76
2022/12/28 01:23:47;;;;;;;16.33;9.50;;;8.20;89.10;;;;;;4998587;28;20736;-74
2022/12/28 01:26:14;;;;;;;13.95;9.50;;;8.20;89.10;;;;;;5001787;28;20038;-75
2022/12/28 01:28:41;;;;;;;15.38;9.60;;;8.20;89.20;;;;;;5005033;28;20088;-76
2022/12/28 01:31:09;;;;;;;13.00;9.27;;;8.30;89.20;;;;;;4993556;28;20493;-75
2022/12/28 01:33:35;;;;;;;15.70;9.65;;;8.30;89.10;;;;;;5006283;28;20586;-75
2022/12/28 01:36:19;;;;;;;13.70;8.88;;;8.30;89.00;;;;;;4999018;28;20130;-76
2022/12/28 01:38:46;;;;;;;14.65;8.73;;;8.30;89.00;;;;;;4996471;28;20501;-75
2022/12/28 01:41:15;;;;;;;15.43;9.05;;;8.40;89.00;;;;;;5002754;28;20038;-75
2022/12/28 01:44:06;;;;;;;14.95;8.63;;;8.30;88.90;;;;;;4997591;28;20045;-75
2022/12/28 01:46:49;;;;;;;13.13;8.10;;;8.30;88.90;;;;;;4996570;28;20482;-75
2022/12/28 01:49:18;;;;;;;14.80;8.98;;;8.40;88.90;;;;;;4998220;28;20023;-74
2022/12/28 01:51:50;;;;;;;13.88;8.52;;;8.40;88.80;;;;;;4998222;28;20126;-74
2022/12/28 01:54:18;;;;;;;14.88;8.65;;;8.40;88.90;;;;;;4996187;28;20029;-76
2022/12/28 01:56:44;;;;;;;14.75;8.25;;;8.50;88.90;;;;;;4997359;28;20034;-76
2022/12/28 01:59:11;;;;;;;10.55;7.72;;;8.50;88.90;;;;;;5003118;28;20026;-76
2022/12/28 02:01:37;;;;;;;14.68;8.18;;;8.50;89.00;;;;;;5005644;28;20057;-74
2022/12/28 02:04:02;;;;;;;11.90;7.97;;;8.50;89.10;;;;;;4994576;28;20474;-74
2022/12/28 02:06:29;;;;;;;11.98;7.90;;;8.50;89.10;;;;;;5003666;28;20596;-74
2022/12/28 02:09:04;;;;;;;12.95;7.60;;;8.60;89.00;;;;;;5004531;28;20560;-74
2022/12/28 02:11:31;;;;;;;12.25;7.63;;;8.60;89.00;;;;;;4996076;28;20034;-74
2022/12/28 02:13:58;;;;;;;11.90;7.30;;;8.60;89.10;;;;;;5005431;28;20127;-75
2022/12/28 02:16:24;;;;;;;13.23;7.97;;;8.60;89.10;;;;;;4996648;28;20352;-76
2022/12/28 02:18:51;;;;;;;11.30;7.53;;;8.60;89.30;;;;;;4999419;28;20470;-75
2022/12/28 02:21:32;;;;;;;14.45;7.53;;;8.60;89.40;;;;;;4995839;28;20049;-75
2022/12/28 02:24:24;;;;;;;12.25;7.15;;;8.60;89.40;;;;;;4994629;28;20046;-75
2022/12/28 02:26:53;;;;;;;12.95;7.78;;;8.60;89.30;;;;;;4977602;28;20033;-76
2022/12/28 02:29:57;;;;;;;10.23;6.78;;;8.60;89.50;;;;;;4997413;28;20053;-74
2022/12/28 02:32:42;;;;;;;14.07;7.60;;;8.60;89.50;;;;;;5000497;28;20068;-76
2022/12/28 02:35:30;;;;;;;12.73;7.38;;;8.60;89.60;;;;;;5001223;28;20018;-74
2022/12/28 02:38:13;;;;;;;11.40;6.57;;;8.60;89.60;;;;;;5006198;28;20215;-74
2022/12/28 02:40:47;;;;;;;12.40;6.57;;;8.60;89.70;;;;;;5004338;28;20041;-75
2022/12/28 02:43:13;;;;;;;13.27;6.47;;;8.60;89.80;;;;;;5008291;28;20037;-74
2022/12/28 02:51:45;;;;;;;10.35;6.30;;;8.60;89.80;;;;;;4999093;28;20493;-77
2022/12/28 02:57:42;;;;;;;11.40;6.45;;;8.60;89.90;;;;;;5006013;28;20115;-76
2022/12/28 03:00:36;;;;;;;10.80;6.40;;;8.70;90.20;;;;;;4998547;28;20072;-77
2022/12/28 03:03:05;;;;;;;10.55;6.72;;;8.60;90.40;;;;;;5003603;28;20042;-76
2022/12/28 03:08:55;;;;;;;11.10;6.47;;;8.70;90.50;;;;;;5005707;28;20036;-76
2022/12/28 03:11:42;;;;;;;12.25;6.57;;;8.60;90.50;;;;;;5001135;28;20034;-75
2022/12/28 03:14:25;;;;;;;11.70;5.80;;;8.70;90.50;;;;;;4989809;28;20133;-75
2022/12/28 03:31:06;;;;;;;10.05;5.85;;;8.70;90.20;;;;;;4994586;28;20807;-75
2022/12/28 03:33:48;;;;;;;10.88;6.13;;;8.80;90.10;;;;;;5000428;28;20081;-77
2022/12/28 03:36:27;;;;;;;11.65;5.40;;;8.80;90.00;;;;;;4998493;28;20061;-75
2022/12/28 03:39:08;;;;;;;11.32;5.15;;;8.90;90.10;;;;;;4999049;28;20025;-74
2022/12/28 03:44:51;;;;;;;10.32;5.05;;;8.90;89.90;;;;;;4996182;28;20056;-74
2022/12/28 03:47:19;;;;;;;10.73;5.03;;;9.00;90.00;;;;;;4999808;28;20604;-74
2022/12/28 03:49:45;;;;;;;9.80;4.80;;;9.00;89.90;;;;;;5000719;28;20195;-74
2022/12/28 03:52:12;;;;;;;8.48;4.85;;;9.00;89.90;;;;;;5005296;28;20041;-74
2022/12/28 03:54:39;;;;;;;8.55;5.00;;;9.00;89.90;;;;;;5004633;28;20037;-74
2022/12/28 03:57:05;;;;;;;8.85;4.57;;;9.10;89.80;;;;;;5000661;28;20035;-75
2022/12/28 03:59:30;;;;;;;8.07;4.30;;;9.00;89.80;;;;;;5004156;28;20548;-74
2022/12/28 04:01:56;;;;;;;9.65;4.60;;;9.10;89.80;;;;;;4996632;28;20052;-74
2022/12/28 04:04:22;;;;;;;9.57;5.00;;;9.10;89.80;;;;;;4992561;28;20035;-76
2022/12/28 04:06:47;;;;;;;10.73;4.22;;;9.10;89.80;;;;;;4999768;28;20168;-75
2022/12/28 04:09:13;;;;;;;11.52;4.22;;;9.10;89.70;;;;;;4998954;28;20475;-76
2022/12/28 04:11:39;;;;;;;10.90;4.53;;;9.10;89.80;;;;;;5005194;28;20061;-75
2022/12/28 04:14:05;;;;;;;9.95;4.40;;;9.10;89.70;;;;;;4999474;28;20128;-75
2022/12/28 04:16:30;;;;;;;7.75;3.85;;;9.10;89.60;;;;;;4999439;28;20079;-76
2022/12/28 04:18:56;;;;;;;8.75;4.15;;;9.20;89.70;;;;;;4998969;28;20688;-75
2022/12/28 04:21:22;;;;;;;10.68;4.03;;;9.10;89.60;;;;;;4990738;28;20030;-75
2022/12/28 04:23:47;;;;;;;8.95;3.72;;;9.20;89.60;;;;;;4994570;28;20398;-76
2022/12/28 04:26:15;;;;;;;10.02;4.40;;;9.20;89.60;;;;;;4990482;28;20160;-75
2022/12/28 04:28:41;;;;;;;9.25;4.00;;;9.20;89.60;;;;;;4999290;28;20050;-75
2022/12/28 04:31:10;;;;;;;9.55;4.63;;;9.20;89.50;;;;;;4997539;28;20038;-75
2022/12/28 04:33:37;;;;;;;8.60;4.60;;;9.30;89.50;;;;;;4990677;28;20518;-75
2022/12/28 04:36:04;;;;;;;11.15;4.65;;;9.30;89.60;;;;;;4992554;28;20133;-76
2022/12/28 04:38:30;;;;;;;9.80;4.15;;;9.20;89.60;;;;;;4997312;28;20026;-75
2022/12/28 04:40:56;;;;;;;10.02;4.13;;;9.30;89.70;;;;;;5002442;28;20040;-75
2022/12/28 04:43:21;;;;;;;9.60;4.47;;;9.30;89.70;;;;;;4989960;28;20039;-76
2022/12/28 04:46:01;;;;;;;9.57;3.95;;;9.20;89.60;;;;;;4989091;28;20034;-75
2022/12/28 04:48:28;;;;;;;8.20;3.90;;;9.20;89.70;;;;;;5003263;28;20034;-75
2022/12/28 04:50:54;;;;;;;6.75;3.58;;;9.30;89.70;;;;;;5010573;28;20050;-75
2022/12/28 04:53:21;;;;;;;8.75;4.00;;;9.30;89.70;;;;;;5003288;28;20438;-76
2022/12/28 04:55:46;;;;;;;7.80;3.78;;;9.30;89.70;;;;;;4994275;28;20038;-76
2022/12/28 04:58:12;;;;;;;8.13;3.72;;;9.40;89.50;;;;;;4987524;28;20081;-75
2022/12/28 05:00:38;;;;;;;8.73;3.63;;;9.40;89.50;;;;;;4997617;28;20037;-75
2022/12/28 05:03:04;;;;;;;8.05;3.50;;;9.30;89.60;;;;;;5002671;28;20477;-75
2022/12/28 05:05:30;;;;;;;8.35;3.83;;;9.40;89.70;;;;;;4995273;28;20466;-76
2022/12/28 05:07:59;;;;;;;8.27;3.40;;;9.40;89.70;;;;;;4998770;28;20574;-74
2022/12/28 05:10:25;;;;;;;8.50;3.72;;;9.40;89.70;;;;;;4999242;28;20076;-75
2022/12/28 05:12:50;;;;;;;8.70;3.65;;;9.40;89.70;;;;;;4992057;28;20054;-76
2022/12/28 05:15:16;;;;;;;10.13;3.67;;;9.40;89.60;;;;;;5003147;28;20033;-75
2022/12/28 05:17:42;;;;;;;9.18;3.63;;;9.40;89.60;;;;;;4993717;28;20105;-75
2022/12/28 05:20:08;;;;;;;11.75;4.68;;;9.40;89.60;;;;;;5005853;28;20030;-76
2022/12/28 05:22:33;;;;;;;11.48;3.55;;;9.40;89.60;;;;;;5000206;28;20099;-76
2022/12/28 05:24:59;;;;;;;8.48;4.00;;;9.40;89.70;;;;;;4999740;28;20030;-76
2022/12/28 05:27:25;;;;;;;8.40;3.53;;;9.40;89.70;;;;;;4998802;28;20116;-76
2022/12/28 05:29:50;;;;;;;8.85;3.88;;;9.40;89.70;;;;;;5001559;28;20581;-73
2022/12/28 05:32:16;;;;;;;8.35;3.55;;;9.40;89.60;;;;;;4974848;28;20843;-75
2022/12/28 05:34:42;;;;;;;9.25;3.55;;;9.40;89.60;;;;;;4980029;28;21807;-74
2022/12/28 05:37:07;;;;;;;10.25;3.60;;;9.50;89.60;;;;;;4984374;28;20322;-74
2022/12/28 05:39:33;;;;;;;6.93;3.50;;;9.50;89.50;;;;;;4984223;28;20517;-73
2022/12/28 05:41:59;;;;;;;11.50;3.75;;;9.50;89.50;;;;;;4974082;28;20145;-73
2022/12/28 05:44:26;;;;;;;7.90;3.75;;;9.50;89.60;;;;;;4981717;28;20075;-75
2022/12/28 05:46:52;;;;;;;11.52;3.80;;;9.50;89.60;;;;;;4983508;28;20050;-73
2022/12/28 05:49:17;;;;;;;8.82;4.13;;;9.50;89.60;;;;;;4997366;28;20501;-75
2022/12/28 05:51:43;;;;;;;9.48;3.88;;;9.40;89.60;;;;;;4990657;28;20440;-76
2022/12/28 05:54:09;;;;;;;11.07;3.65;;;9.50;89.60;;;;;;5008231;28;20036;-75
2022/12/28 05:56:35;;;;;;;10.32;3.90;;;9.50;89.60;;;;;;4997841;28;20470;-76
2022/12/28 05:59:04;;;;;;;8.85;3.83;;;9.50;89.60;;;;;;4996791;28;20032;-75
2022/12/28 06:01:33;;;;;;;10.98;3.90;;;9.60;89.60;;;;;;5004716;28;20030;-74
2022/12/28 06:04:04;;;;;;;11.02;3.88;;;9.60;89.40;;;;;;4996360;28;20037;-73
2022/12/28 06:06:31;;;;;;;11.15;3.85;;;9.50;89.40;;;;;;5005181;28;20057;-74
2022/12/28 06:08:58;;;;;;;13.35;4.18;;;9.50;89.50;;;;;;4999482;28;20022;-74
2022/12/28 06:11:27;;;;;;;11.95;4.30;;;9.50;89.50;;;;;;4998807;28;20038;-74
2022/12/28 06:13:53;;;;;;;9.45;3.53;;;9.50;89.40;;;;;;5005070;28;20250;-74
2022/12/28 06:16:22;;;;;;;12.23;3.92;;;9.50;89.50;;;;;;4995270;28;20030;-74
2022/12/28 06:18:50;;;;;;;11.73;3.97;;;9.50;89.40;;;;;;4991178;28;20053;-74
2022/12/28 06:21:31;;;;;;;10.68;3.97;;;9.50;89.40;;;;;;4994779;28;20037;-76
2022/12/28 06:23:58;;;;;;;10.85;3.72;;;9.60;89.40;;;;;;4988725;28;20153;-76
2022/12/28 06:26:25;;;;;;;11.20;4.43;;;9.60;89.40;;;;;;4993922;28;20042;-75
2022/12/28 06:28:51;;;;;;;13.77;3.97;;;9.60;89.30;;;;;;4998819;28;20108;-75
2022/12/28 06:31:22;;;;;;;9.32;4.07;;;9.60;89.30;;;;;;4998322;28;20104;-74
2022/12/28 06:33:52;;;;;;;8.75;3.15;;;9.60;89.40;;;;;;4995442;28;20034;-74
2022/12/28 06:36:19;;;;;;;15.25;4.40;;;9.60;89.30;;;;;;4997924;28;20491;-74
2022/12/28 06:38:46;;;;;;;10.45;3.67;;;9.60;89.20;;;;;;5001377;28;20018;-74
2022/12/28 06:41:13;;;;;;;8.63;3.22;;;9.60;89.20;;;;;;4999577;28;20034;-76
2022/12/28 06:43:40;;;;;;;19.27;4.53;;;9.60;89.20;;;;;;4997660;28;20026;-74
2022/12/28 06:46:06;;;;;;;9.27;3.75;;;9.60;89.10;;;;;;4994954;28;20083;-74
2022/12/28 06:48:33;;;;;;;9.85;3.88;;;9.60;89.10;;;;;;5004143;28;20036;-75
2022/12/28 06:51:08;;;;;;;8.70;3.30;;;9.60;89.00;;;;;;4999410;28;20046;-74
2022/12/28 06:53:36;;;;;;;8.95;3.80;;;9.60;89.00;;;;;;4999171;28;20059;-74
2022/12/28 06:56:11;;;;;;;9.90;3.38;;;9.60;88.90;;;;;;4998519;28;20046;-75
2022/12/28 06:58:37;;;;;;;13.60;3.80;;;9.60;89.00;;;;;;4996921;28;20018;-76
2022/12/28 07:01:12;;;;;;;11.82;3.83;;;9.60;88.90;;;;;;4993141;28;20060;-76
2022/12/28 07:03:38;;;;;;;10.50;3.50;;;9.60;88.70;;;;;;4983075;28;20158;-75
2022/12/28 07:06:04;;;;;;;12.13;3.22;;;9.60;88.70;;;;;;4985451;28;20564;-75
2022/12/28 07:08:31;;;;;;;13.15;3.90;;;9.60;88.60;;;;;;4994895;28;20030;-75
2022/12/28 07:11:09;;;;;;;9.27;3.38;;;9.60;88.60;;;;;;4995362;28;20380;-74
2022/12/28 07:13:34;;;;;;;10.68;3.40;;;9.60;88.50;;;;;;4993344;28;20129;-75
2022/12/28 07:16:06;;;;;;;13.77;3.92;;;9.60;88.50;;;;;;4993884;28;20453;-76
2022/12/28 07:18:32;;;;;;;9.32;3.53;;;9.60;88.30;;;;;;4997932;28;20131;-75
2022/12/28 07:21:04;;;;;;;9.85;3.00;;;9.70;88.20;;;;;;4993628;28;20080;-74
2022/12/28 07:23:30;;;;;;;13.18;3.42;;;9.70;88.20;;;;;;4994220;28;20755;-74
2022/12/28 07:26:02;;;;;;;13.30;4.43;;;9.70;88.10;;;;;;4999546;28;20033;-75
2022/12/28 07:28:28;;;;;;;15.90;4.38;;;9.70;88.20;;;;;;4997431;28;20483;-75
2022/12/28 07:30:53;;;;;;;13.25;4.22;;;9.70;88.10;;;;;;4999454;28;20033;-75
2022/12/28 07:33:19;;;;;;;12.18;3.90;;;9.70;88.10;;;;;;4997024;28;20475;-76
2022/12/28 07:35:45;;;;;;;11.65;3.75;;;9.70;88.00;;;;;;4997698;28;20061;-75
2022/12/28 07:38:10;;;;;;;11.77;3.88;;;9.70;87.90;;;;;;4980496;28;20491;-75
2022/12/28 07:40:36;;;;;;;13.50;4.95;;;9.70;87.90;;;;;;4976437;28;20526;-75
2022/12/28 07:43:02;;;;;;;13.07;3.83;;;9.70;88.00;;;;;;4999105;28;20514;-74
2022/12/28 07:45:28;;;;;;;9.13;3.47;;;9.70;88.10;;;;;;4999545;28;20021;-75
2022/12/28 07:47:54;;;;;;;9.40;2.78;;;9.70;88.10;;;;;;4995487;28;20025;-74
2022/12/28 07:50:19;;;;;;;10.88;3.60;;;9.70;87.90;;;;;;4998920;28;20041;-74
2022/12/28 07:52:45;;;;;;;9.77;4.03;;;9.70;87.90;;;;;;4997854;28;20037;-74
2022/12/28 07:55:12;;;;;;;8.77;3.25;;;9.70;87.90;;;;;;4999087;28;21665;-74
2022/12/28 07:57:38;;;;;;;10.25;3.53;;;9.70;87.90;;;;;;5000371;28;20058;-75
2022/12/28 08:00:06;;;;;;;7.88;3.28;;;9.70;88.10;;;;;;5000236;28;20121;-75
2022/12/28 08:02:31;;;;;;;8.80;3.65;;;9.70;88.10;;;;;;4999883;28;20804;-76
2022/12/28 08:04:57;;;;;;;9.68;3.80;;;9.70;88.20;;;;;;4994951;28;20770;-76
2022/12/28 08:07:23;;;;;;;8.27;3.25;;;9.70;88.20;;;;;;5004435;28;20573;-74
2022/12/28 08:09:49;;;;;;;15.20;3.03;;;9.70;88.40;;;;;;4997965;28;20030;-73
2022/12/28 08:12:15;;;;;;;8.82;3.33;;;9.70;88.50;;;;;;4995589;28;20045;-74
2022/12/28 08:14:40;;;;;;;10.50;3.17;;;9.70;88.80;;;;;;4998750;28;20029;-74
2022/12/28 08:17:06;;;;;;;11.40;3.80;;;9.70;89.00;;;;;;4998347;28;20087;-74
2022/12/28 08:19:31;;;;;;;9.35;3.33;;;9.60;89.40;;;;;;4995789;28;20459;-76
2022/12/28 08:21:57;;;;;;;12.48;3.72;;;9.60;89.60;;;;;;4996348;28;20038;-75
2022/12/28 08:24:23;;;;;;;12.40;4.43;;;9.60;89.80;;;;;;4999384;28;20065;-74
2022/12/28 08:26:49;;;;;;;15.60;5.22;;;9.60;89.90;;;;;;4997285;28;20030;-74
2022/12/28 08:29:20;;;;;;;16.50;5.68;;;9.60;89.90;;;;;;4998348;28;20021;-75
2022/12/28 08:31:46;;;;;;;11.45;5.05;;;9.60;89.90;;;;;;4996082;28;20076;-75
2022/12/28 08:34:19;;;;;;;13.73;4.57;;;9.60;90.00;;;;;;5004524;28;20026;-74
2022/12/28 08:36:44;;;;;;;13.00;5.03;;;9.60;90.20;;;;;;4988986;28;20030;-74
2022/12/28 08:39:10;;;;;;;13.10;5.63;;;9.60;90.30;;;;;;4974847;28;20077;-75
2022/12/28 08:41:36;;;;;;;10.15;4.80;;;9.60;90.30;;;;;;4994082;28;20044;-75
2022/12/28 08:44:02;;;;;;;13.48;6.13;;;9.60;90.50;;;;;;4992303;28;20470;-74
2022/12/28 08:46:30;;;;;;;10.65;4.97;;;9.60;90.50;;;;;;4999693;28;20054;-75
2022/12/28 08:48:58;;;;;;;12.48;5.07;;;9.60;90.50;;;;;;5003562;28;20026;-74
2022/12/28 08:51:31;;;;;;;12.43;4.40;;;9.60;90.50;;;;;;4999420;28;20073;-74
2022/12/28 08:53:56;;;;;;;9.63;4.80;;;9.60;90.70;;;;;;4998374;28;20487;-74
2022/12/28 08:56:28;;;;;;;11.60;4.32;;;9.60;90.70;;;;;;4993606;28;20121;-74
2022/12/28 08:58:55;;;;;;;12.18;4.13;;;9.60;90.90;;;;;;4984504;28;20037;-75
2022/12/28 09:01:26;;;;;;;12.88;3.90;;;9.60;90.90;;;;;;4985864;28;20062;-75
2022/12/28 09:03:54;;;;;;;10.88;4.38;;;9.60;91.00;;;;;;4989601;28;20042;-76
2022/12/28 09:06:26;;;;;;;17.52;4.45;;;9.50;91.20;;;;;;4991206;28;20290;-76
2022/12/28 09:08:54;;;;;;;12.13;4.03;;;9.60;91.30;;;;;;4982076;28;20446;-76
2022/12/28 09:11:20;;;;;;;14.80;4.90;;;9.60;91.30;;;;;;4984536;28;20033;-77
2022/12/28 09:13:47;;;;;;;10.20;4.28;;;9.60;91.30;;;;;;4983530;28;20057;-76
2022/12/28 09:16:15;;;;;;;13.55;4.90;;;9.60;91.30;;;;;;4987140;28;20519;-74
2022/12/28 09:18:42;;;;;;;13.25;4.50;;;9.60;91.20;;;;;;4987244;28;20026;-75
2022/12/28 09:21:14;;;;;;;8.93;4.03;;;9.60;91.20;;;;;;4986245;28;20237;-76
2022/12/28 09:23:41;;;;;;;10.80;3.90;;;9.70;91.30;;;;;;4990995;28;20450;-75
2022/12/28 09:26:18;;;;;;;9.65;3.90;;;9.60;91.30;;;;;;4986742;28;20046;-76
2022/12/28 09:28:46;;;;;;;11.85;4.60;;;9.60;91.40;;;;;;4986526;28;20037;-76
2022/12/28 09:31:11;;;;;;;13.90;4.57;;;9.70;91.50;;;;;;4989104;28;20040;-75
2022/12/28 09:36:22;;;;;;;11.13;3.88;;;9.70;91.40;;;;;;4983017;28;20089;-75
2022/12/28 09:38:48;;;;;;;11.30;3.78;;;9.70;91.40;;;;;;4987416;28;20534;-77
2022/12/28 09:41:26;;;;;;;8.63;3.63;;;9.70;91.30;;;;;;4982871;28;20030;-76
2022/12/28 09:44:02;;;;;;;10.43;3.70;;;9.70;91.30;;;;;;4985144;28;20183;-74
2022/12/28 09:46:30;;;;;;;13.27;4.53;;;9.70;91.30;;;;;;4986144;28;20049;-75
2022/12/28 09:48:58;;;;;;;9.88;3.92;;;9.70;91.30;;;;;;4988803;28;20080;-74
2022/12/28 09:51:31;;;;;;;11.93;4.18;;;9.80;91.20;;;;;;4984663;28;20125;-75
2022/12/28 09:53:57;;;;;;;12.85;4.22;;;9.80;91.10;;;;;;4988467;28;20029;-76
2022/12/28 09:56:43;;;;;;;10.60;4.25;;;9.80;91.10;;;;;;4982812;28;20096;-74
2022/12/28 09:59:14;;;;;;;11.93;4.70;;;9.80;91.30;;;;;;4989567;28;20049;-75
2022/12/28 10:01:43;;;;;;;11.27;4.25;;;9.70;91.40;;;;;;4981866;28;20438;-76
2022/12/28 10:04:11;;;;;;;11.23;4.47;;;9.80;91.40;;;;;;4971190;28;20406;-76
2022/12/28 10:06:36;;;;;;;10.88;4.10;;;9.80;91.40;;;;;;4980669;28;20049;-74
2022/12/28 10:09:05;;;;;;;10.38;4.38;;;9.80;91.40;;;;;;4972171;28;20026;-74
2022/12/28 10:11:40;;;;;;;9.18;4.03;;;9.80;91.40;;;;;;4981187;28;20121;-74
2022/12/28 10:14:29;;;;;;;12.77;4.60;;;9.80;91.40;;;;;;4982657;28;20060;-74
2022/12/28 10:16:55;;;;;;;11.98;4.22;;;9.80;91.50;;;;;;4984294;28;20042;-75
2022/12/28 10:19:25;;;;;;;12.70;4.85;;;9.80;91.70;;;;;;4983952;28;20037;-76
2022/12/28 10:21:59;;;;;;;13.02;4.28;;;9.90;91.60;;;;;;4991896;28;20077;-73
2022/12/28 10:24:25;;;;;;;18.35;5.45;;;9.80;91.70;;;;;;4992777;28;20046;-74
2022/12/28 10:26:51;;;;;;;13.02;4.65;;;9.90;91.70;;;;;;4992709;28;20037;-73
2022/12/28 10:29:21;;;;;;;13.63;4.93;;;9.90;91.60;;;;;;4992433;28;20029;-73
2022/12/28 10:32:02;;;;;;;12.40;4.85;;;10.00;91.60;;;;;;4988157;28;20169;-73
2022/12/28 10:34:30;;;;;;;12.93;4.90;;;10.00;91.50;;;;;;4981605;28;20044;-75
2022/12/28 10:37:02;;;;;;;16.70;4.70;;;10.00;91.40;;;;;;4982898;28;20722;-76
2022/12/28 10:39:30;;;;;;;14.02;4.90;;;10.00;91.30;;;;;;4974713;28;20026;-76
2022/12/28 10:41:59;;;;;;;10.32;4.55;;;10.00;91.20;;;;;;4981672;28;20087;-75
2022/12/28 10:44:34;;;;;;;13.93;4.50;;;10.00;91.10;;;;;;4980717;28;20442;-75
2022/12/28 10:47:05;;;;;;;16.85;4.78;;;10.00;91.00;;;;;;4982117;28;20253;-75
2022/12/28 10:49:35;;;;;;;14.50;5.68;;;10.00;91.00;;;;;;4980767;28;20054;-75
2022/12/28 10:52:05;;;;;;;13.80;4.88;;;10.10;90.80;;;;;;4981851;28;20114;-74
2022/12/28 10:54:33;;;;;;;11.80;4.38;;;10.10;90.70;;;;;;4980915;28;20045;-74
2022/12/28 10:56:59;;;;;;;9.93;4.53;;;10.10;90.50;;;;;;4982761;28;20054;-74
2022/12/28 10:59:28;;;;;;;14.57;5.43;;;10.10;90.50;;;;;;4981635;28;20034;-75
2022/12/28 11:02:12;;;;;;;11.25;4.65;;;10.10;90.20;;;;;;4978897;28;20041;-74
2022/12/28 11:04:52;;;;;;;14.80;4.28;;;10.20;90.10;;;;;;4981222;28;20076;-75
2022/12/28 11:07:38;;;;;;;11.52;4.15;;;10.10;90.00;;;;;;4980978;28;20124;-75
2022/12/28 11:10:22;;;;;;;14.80;5.05;;;10.20;89.70;;;;;;4981262;28;20034;-76
2022/12/28 11:12:49;;;;;;;17.17;5.10;;;10.20;89.70;;;;;;4979591;28;20069;-75
2022/12/28 11:15:18;;;;;;;11.27;3.97;;;10.20;89.60;;;;;;4992396;28;20510;-74
2022/12/28 11:17:54;;;;;;;12.23;3.92;;;10.20;89.40;;;;;;4988789;28;20034;-75
2022/12/28 11:20:32;;;;;;;11.05;4.32;;;10.30;89.20;;;;;;4981690;28;20236;-75
2022/12/28 11:22:58;;;;;;;10.82;3.85;;;10.30;89.00;;;;;;4976561;28;20042;-75
2022/12/28 11:25:33;;;;;;;13.98;4.03;;;10.40;88.90;;;;;;4983425;28;20091;-75
2022/12/28 11:28:00;;;;;;;14.02;4.20;;;10.40;88.60;;;;;;4982343;28;20443;-75
2022/12/28 11:30:27;;;;;;;10.90;3.88;;;10.40;88.60;;;;;;4978874;28;20025;-74
2022/12/28 11:32:59;;;;;;;9.43;3.75;;;10.40;88.40;;;;;;4985583;28;20065;-74
2022/12/28 11:35:31;;;;;;;11.85;3.90;;;10.40;88.50;;;;;;4986584;28;20022;-73
2022/12/28 11:37:59;;;;;;;13.93;3.78;;;10.40;88.30;;;;;;4988179;28;20080;-73
2022/12/28 11:40:51;;;;;;;14.02;3.80;;;10.40;88.30;;;;;;4988955;28;20120;-73
2022/12/28 11:43:29;;;;;;;12.07;4.10;;;10.40;88.20;;;;;;4988968;28;20262;-73
2022/12/28 11:46:03;;;;;;;11.02;3.83;;;10.50;88.10;;;;;;4983063;28;20117;-75
2022/12/28 11:48:54;;;;;;;10.88;3.70;;;10.40;87.90;;;;;;4989579;28;20030;-74
2022/12/28 11:51:22;;;;;;;13.55;4.03;;;10.50;87.80;;;;;;4992093;28;20045;-73
2022/12/28 11:54:00;;;;;;;11.32;3.83;;;10.50;87.70;;;;;;4990995;28;20061;-74
2022/12/28 11:56:48;;;;;;;13.60;4.03;;;10.50;87.70;;;;;;4996313;28;20037;-75
2022/12/28 11:59:21;;;;;;;11.32;4.20;;;10.50;87.50;;;;;;4994926;28;20057;-74
2022/12/28 12:01:49;;;;;;;11.90;3.55;;;10.50;87.50;;;;;;4994226;28;20046;-73
2022/12/28 12:04:39;;;;;;;10.70;3.97;;;10.50;87.50;;;;;;4981881;28;20045;-75
2022/12/28 12:07:06;;;;;;;9.27;3.60;;;10.50;87.30;;;;;;4987850;28;20042;-74
2022/12/28 12:09:37;;;;;;;13.15;4.15;;;10.60;87.30;;;;;;4990997;28;20109;-74
2022/12/28 12:12:28;;;;;;;14.85;4.28;;;10.60;87.20;;;;;;4983832;28;20418;-73
2022/12/28 12:15:01;;;;;;;12.45;3.80;;;10.60;86.90;;;;;;4989672;28;20143;-75
2022/12/28 12:17:42;;;;;;;16.42;5.13;;;10.60;86.90;;;;;;4983120;28;20128;-74
2022/12/28 12:20:34;;;;;;;15.45;4.28;;;10.60;86.80;;;;;;4985155;28;20540;-74
2022/12/28 12:23:37;;;;;;;12.80;4.20;;;10.70;86.60;;;;;;4988605;28;20056;-75
2022/12/28 12:26:36;;;;;;;13.40;4.68;;;10.70;86.50;;;;;;4997289;28;20038;-75
2022/12/28 12:29:47;;;;;;;16.70;7.15;;;10.80;86.30;;;;;;5000223;28;20025;-74
2022/12/28 12:32:45;;;;;;;14.15;5.38;;;10.80;86.30;;;;;;4992325;28;20053;-74
2022/12/28 12:35:16;;;;;;;12.82;4.05;;;10.80;86.20;;;;;;4981119;28;20042;-74
2022/12/28 12:38:02;;;;;;;12.73;4.50;;;10.90;86.20;;;;;;4992990;28;20490;-75
2022/12/28 12:40:33;;;;;;;18.13;4.38;;;10.90;85.80;;;;;;4994100;28;20654;-74
2022/12/28 12:43:24;;;;;;;14.27;4.10;;;10.90;85.90;;;;;;4993094;28;20038;-74
2022/12/28 12:46:23;;;;;;;11.80;3.88;;;10.80;85.90;;;;;;4992289;28;20538;-74
2022/12/28 12:49:20;;;;;;;17.00;5.68;;;10.90;86.00;;;;;;4996038;28;20027;-73
2022/12/28 12:52:05;;;;;;;14.93;4.63;;;10.90;85.90;;;;;;4991182;28;20050;-74
2022/12/28 12:54:34;;;;;;;14.88;4.72;;;11.00;85.80;;;;;;4977922;28;20035;-73
2022/12/28 12:57:12;;;;;;;11.68;4.20;;;11.00;85.50;;;;;;4992726;28;20646;-74
2022/12/28 12:59:57;;;;;;;10.82;4.13;;;11.00;85.70;;;;;;4996223;28;20026;-73
2022/12/28 13:02:45;;;;;;;11.93;4.30;;;11.00;85.50;;;;;;4997771;28;20133;-74
2022/12/28 13:05:24;;;;;;;13.75;4.10;;;11.00;85.40;;;;;;4998450;28;20452;-74
2022/12/28 13:07:54;;;;;;;11.25;4.43;;;11.00;85.10;;;;;;4999500;28;20088;-75
2022/12/28 13:10:36;;;;;;;10.95;3.92;;;11.00;85.00;;;;;;5000503;28;20144;-74
2022/12/28 13:13:04;;;;;;;11.27;3.67;;;10.90;84.70;;;;;;4998333;28;20837;-74
2022/12/28 13:15:30;;;;;;;15.02;5.15;;;11.00;84.90;;;;;;4999144;28;20372;-72
2022/12/28 13:18:13;;;;;;;16.10;4.30;;;11.00;84.90;;;;;;4997945;28;20196;-76
2022/12/28 13:20:38;;;;;;;10.15;3.97;;;11.00;84.70;;;;;;4992922;28;20042;-74
2022/12/28 13:23:04;;;;;;;10.85;4.30;;;11.00;84.80;;;;;;4977450;28;20035;-73
2022/12/28 13:25:33;;;;;;;12.63;4.38;;;11.10;84.90;;;;;;4978634;28;20058;-73
2022/12/28 13:28:03;;;;;;;13.82;3.55;;;11.10;84.70;;;;;;4995846;28;20065;-73
2022/12/28 13:30:29;;;;;;;8.45;3.00;;;11.10;84.40;;;;;;4993785;28;20693;-76
2022/12/28 13:32:58;;;;;;;15.88;4.18;;;11.10;84.10;;;;;;4997664;28;20022;-75
2022/12/28 13:35:27;;;;;;;11.52;4.10;;;11.10;84.30;;;;;;4996351;28;20041;-77